createdAt,value
2022-08-17T00:00:51.854Z,10.43
2022-08-17T00:03:22.241Z,11.03
2022-08-17T00:05:54.909Z,9.97
2022-08-17T00:08:23.095Z,11.40
2022-08-17T00:10:50.482Z,10.53
2022-08-17T00:13:25.750Z,10.63
2022-08-17T00:15:54.989Z,11.83
2022-08-17T00:18:58.171Z,11.97
2022-08-17T00:21:10.468Z,10.23
2022-08-17T00:23:37.645Z,12.07
2022-08-17T00:26:04.115Z,10.63
2022-08-17T00:28:33.301Z,10.43
2022-08-17T00:30:59.988Z,10.67
2022-08-17T00:33:29.079Z,11.20
2022-08-17T00:35:56.716Z,12.27
2022-08-17T00:38:23.941Z,12.87
2022-08-17T00:40:52.453Z,13.77
2022-08-17T00:43:22.527Z,14.67
2022-08-17T00:45:49.394Z,13.93
2022-08-17T00:48:29.160Z,13.50
2022-08-17T00:51:05.621Z,12.77
2022-08-17T00:53:33.768Z,11.77
2022-08-17T00:56:01.765Z,13.47
2022-08-17T00:58:35.946Z,12.20
2022-08-17T01:01:03.422Z,12.00
2022-08-17T01:03:31.092Z,11.53
2022-08-17T01:06:00.651Z,12.23
2022-08-17T01:08:29.557Z,12.80
2022-08-17T01:11:01.310Z,11.37
2022-08-17T01:13:40.378Z,12.80
2022-08-17T01:16:11.543Z,11.50
2022-08-17T01:18:38.433Z,11.40
2022-08-17T01:21:10.684Z,13.07
2022-08-17T01:23:38.507Z,11.80
2022-08-17T01:26:06.554Z,14.10
2022-08-17T01:28:53.385Z,15.40
2022-08-17T01:31:21.215Z,13.17
2022-08-17T01:33:47.853Z,13.40
2022-08-17T01:36:14.490Z,12.83
2022-08-17T01:38:41.163Z,13.23
2022-08-17T01:41:13.947Z,11.73
2022-08-17T01:43:45.323Z,11.30
2022-08-17T01:46:15.890Z,13.87
2022-08-17T01:48:43.613Z,12.50
2022-08-17T01:51:10.092Z,11.80
2022-08-17T01:53:39.884Z,11.27
2022-08-17T01:56:08.551Z,12.50
2022-08-17T01:58:36.016Z,11.63
2022-08-17T02:01:03.114Z,12.37
2022-08-17T02:03:30.044Z,12.00
2022-08-17T02:05:56.892Z,11.50
2022-08-17T02:08:39.078Z,11.60
2022-08-17T02:11:12.516Z,12.10
2022-08-17T02:13:39.121Z,11.30
2022-08-17T02:16:05.611Z,11.50
2022-08-17T02:18:32.251Z,11.50
2022-08-17T02:20:59.046Z,11.53
2022-08-17T02:23:26.908Z,12.37
2022-08-17T02:25:54.702Z,10.57
2022-08-17T02:28:21.259Z,11.10
2022-08-17T02:30:59.148Z,10.03
2022-08-17T02:33:42.634Z,11.07
2022-08-17T02:36:10.531Z,12.33
2022-08-17T02:38:37.716Z,13.40
2022-08-17T02:41:04.584Z,12.87
2022-08-17T02:43:31.443Z,13.70
2022-08-17T02:45:57.979Z,10.60
2022-08-17T02:48:30.739Z,10.80
2022-08-17T02:50:58.624Z,11.00
2022-08-17T02:53:25.769Z,13.63
2022-08-17T02:55:52.675Z,13.70
2022-08-17T02:58:34.749Z,13.33
2022-08-17T03:01:03.752Z,13.93
2022-08-17T03:03:30.311Z,13.77
2022-08-17T03:05:56.838Z,15.87
2022-08-17T03:08:23.855Z,15.10
2022-08-17T03:10:50.611Z,15.33
2022-08-17T03:13:17.350Z,14.60
2022-08-17T03:15:45.259Z,15.43
2022-08-17T03:18:19.099Z,15.57
2022-08-17T03:20:51.256Z,14.00
2022-08-17T03:23:17.776Z,15.57
2022-08-17T03:25:45.954Z,15.70
2022-08-17T03:28:12.681Z,13.73
2022-08-17T03:30:40.016Z,13.73
2022-08-17T03:33:09.991Z,11.80
2022-08-17T03:35:38.096Z,11.67
2022-08-17T03:38:04.607Z,11.80
2022-08-17T03:40:34.384Z,12.53
2022-08-17T03:43:18.415Z,11.53
2022-08-17T03:46:03.676Z,12.53
2022-08-17T03:48:51.082Z,12.30
2022-08-17T03:51:38.268Z,11.90
2022-08-17T03:54:24.018Z,13.03
2022-08-17T03:57:03.306Z,13.43
2022-08-17T03:59:30.925Z,14.17
2022-08-17T04:01:59.036Z,17.93
2022-08-17T04:04:27.615Z,14.43
2022-08-17T04:06:54.924Z,17.00
2022-08-17T04:09:21.457Z,16.80
2022-08-17T04:11:47.982Z,17.37
2022-08-17T04:14:14.485Z,15.87
2022-08-17T04:16:41.198Z,17.70
2022-08-17T04:19:07.721Z,17.07
2022-08-17T04:21:34.775Z,16.63
2022-08-17T04:24:01.333Z,18.03
2022-08-17T04:26:52.860Z,17.20
2022-08-17T04:29:16.721Z,17.23
2022-08-17T04:31:43.728Z,16.27
2022-08-17T04:34:10.407Z,17.77
2022-08-17T04:36:36.902Z,16.30
2022-08-17T04:39:04.089Z,15.40
2022-08-17T04:41:49.473Z,17.53
2022-08-17T04:44:36.993Z,16.37
2022-08-17T04:47:02.932Z,16.20
2022-08-17T04:49:29.517Z,16.73
2022-08-17T04:51:59.029Z,16.60
2022-08-17T04:54:29.198Z,17.43
2022-08-17T04:56:55.699Z,17.30
2022-08-17T04:59:22.461Z,18.23
2022-08-17T05:01:50.800Z,19.60
2022-08-17T05:04:32.866Z,18.50
2022-08-17T05:07:01.920Z,19.33
2022-08-17T05:09:29.016Z,19.60
2022-08-17T05:11:56.335Z,19.23
2022-08-17T05:14:33.223Z,17.40
2022-08-17T05:17:01.006Z,17.17
2022-08-17T05:19:27.787Z,17.80
2022-08-17T05:21:54.291Z,17.23
2022-08-17T05:24:42.557Z,18.63
2022-08-17T05:27:07.498Z,18.20
2022-08-17T05:29:35.475Z,15.27
2022-08-17T05:32:38.322Z,14.53
2022-08-17T05:35:00.241Z,15.37
2022-08-17T05:37:26.847Z,15.67
2022-08-17T05:39:53.837Z,13.93
2022-08-17T05:42:20.777Z,15.43
2022-08-17T05:44:47.280Z,14.73
2022-08-17T05:47:13.848Z,15.20
2022-08-17T05:49:40.405Z,14.77
2022-08-17T05:52:12.144Z,13.73
2022-08-17T05:54:41.764Z,14.40
2022-08-17T05:57:08.287Z,14.57
2022-08-17T05:59:40.970Z,15.47
2022-08-17T06:02:26.507Z,15.57
2022-08-17T06:04:56.071Z,14.60
2022-08-17T06:07:41.165Z,13.70
2022-08-17T06:10:11.700Z,13.77
2022-08-17T06:12:58.583Z,13.53
2022-08-17T06:15:28.185Z,14.90
2022-08-17T06:17:56.352Z,13.97
2022-08-17T06:20:23.423Z,15.73
2022-08-17T06:22:51.966Z,12.83
2022-08-17T06:25:21.639Z,12.07
2022-08-17T06:27:56.707Z,13.07
2022-08-17T06:30:25.593Z,13.97
2022-08-17T06:32:53.314Z,13.27
2022-08-17T06:35:28.898Z,11.70
2022-08-17T06:38:38.039Z,13.77
2022-08-17T06:41:06.660Z,11.67
2022-08-17T06:43:40.212Z,11.83
2022-08-17T06:46:11.398Z,12.47
2022-08-17T06:48:44.560Z,10.03
2022-08-17T06:51:23.273Z,9.87
2022-08-17T06:54:02.595Z,10.17
2022-08-17T06:56:54.024Z,10.07
2022-08-17T06:59:53.176Z,10.20
2022-08-17T07:02:18.422Z,9.63
2022-08-17T07:04:46.632Z,9.50
2022-08-17T07:07:32.787Z,10.50
2022-08-17T07:10:00.837Z,8.83
2022-08-17T07:12:38.497Z,9.20
2022-08-17T07:15:05.567Z,9.20
2022-08-17T07:17:46.420Z,8.57
2022-08-17T07:20:16.067Z,7.00
2022-08-17T07:22:54.794Z,8.10
2022-08-17T07:25:26.574Z,7.37
2022-08-17T07:27:59.745Z,6.80
2022-08-17T07:30:28.631Z,6.33
2022-08-17T07:32:57.349Z,7.07
2022-08-17T07:35:37.615Z,6.67
2022-08-17T07:38:26.112Z,7.40
2022-08-17T07:40:57.669Z,6.60
2022-08-17T07:43:24.437Z,6.13
2022-08-17T07:46:12.655Z,5.60
2022-08-17T07:48:40.477Z,5.00
2022-08-17T07:51:19.136Z,5.50
2022-08-17T07:53:45.828Z,5.10
2022-08-17T07:56:32.536Z,4.60
2022-08-17T07:59:16.631Z,4.70
2022-08-17T08:01:46.234Z,6.00
2022-08-17T08:04:58.915Z,6.17
2022-08-17T08:07:23.313Z,5.23
2022-08-17T08:09:58.889Z,5.50
2022-08-17T08:12:25.461Z,5.00
2022-08-17T08:15:07.762Z,4.60
2022-08-17T08:17:37.929Z,3.90
2022-08-17T08:20:51.029Z,4.80
2022-08-17T08:23:11.747Z,4.63
2022-08-17T08:25:53.701Z,5.60
2022-08-17T08:28:36.554Z,4.70
2022-08-17T08:31:42.182Z,4.10
2022-08-17T08:34:45.032Z,4.30
2022-08-17T08:37:36.660Z,4.20
2022-08-17T08:40:24.593Z,4.60
2022-08-17T08:42:57.506Z,3.50
2022-08-17T08:45:42.458Z,3.17
2022-08-17T08:48:56.511Z,3.20
2022-08-17T08:51:21.057Z,3.40
2022-08-17T08:54:14.088Z,3.67
2022-08-17T08:57:11.637Z,3.57
2022-08-17T08:59:31.088Z,3.10
2022-08-17T09:02:13.318Z,3.40
2022-08-17T09:05:02.623Z,3.73
2022-08-17T09:07:37.550Z,3.53
2022-08-17T09:10:10.283Z,3.60
2022-08-17T09:12:57.281Z,3.13
2022-08-17T09:15:44.786Z,3.60
2022-08-17T09:19:03.527Z,3.50
2022-08-17T09:21:14.234Z,3.43
2022-08-17T09:23:59.886Z,3.40
2022-08-17T09:27:04.930Z,4.43
2022-08-17T09:29:35.057Z,3.33
2022-08-17T09:32:04.886Z,3.53
2022-08-17T09:34:36.798Z,2.70
2022-08-17T09:37:11.180Z,3.20
2022-08-17T09:39:51.516Z,4.00
2022-08-17T09:42:23.615Z,3.60
2022-08-17T09:45:01.821Z,2.97
2022-08-17T09:47:32.362Z,3.83
2022-08-17T09:50:55.393Z,3.60
2022-08-17T09:53:11.914Z,3.67
2022-08-17T09:55:43.221Z,3.27
2022-08-17T09:58:17.323Z,3.30
2022-08-17T10:00:53.472Z,3.97
2022-08-17T10:03:34.342Z,3.60
2022-08-17T10:06:08.322Z,4.07
2022-08-17T10:08:38.430Z,4.00
2022-08-17T10:11:07.948Z,3.93
2022-08-17T10:13:37.813Z,3.87
2022-08-17T10:16:04.389Z,4.30
2022-08-17T10:18:45.871Z,3.70
2022-08-17T10:21:35.656Z,3.53
2022-08-17T10:24:26.449Z,3.00
2022-08-17T10:26:57.139Z,3.20
2022-08-17T10:29:48.947Z,3.57
2022-08-17T10:32:25.149Z,3.23
2022-08-17T10:35:00.765Z,3.57
2022-08-17T10:37:30.432Z,3.73
2022-08-17T10:40:09.545Z,3.50
2022-08-17T10:42:42.688Z,3.80
2022-08-17T10:45:26.374Z,3.77
2022-08-17T10:48:00.116Z,3.30
2022-08-17T10:50:49.527Z,3.30
2022-08-17T10:53:31.562Z,3.83
2022-08-17T10:56:13.463Z,3.60
2022-08-17T10:58:46.218Z,4.23
2022-08-17T11:01:12.948Z,3.40
2022-08-17T11:03:54.913Z,4.00
2022-08-17T11:06:50.925Z,3.47
2022-08-17T11:09:27.627Z,3.13
2022-08-17T11:11:57.113Z,3.50
2022-08-17T11:14:29.945Z,3.70
2022-08-17T11:16:59.373Z,2.93
2022-08-17T11:19:41.324Z,3.87
2022-08-17T11:22:16.757Z,3.40
2022-08-17T11:24:51.252Z,3.30
2022-08-17T11:27:31.718Z,3.87
2022-08-17T11:30:03.105Z,3.83
2022-08-17T11:32:37.325Z,3.97
2022-08-17T11:35:21.930Z,3.60
2022-08-17T11:38:14.013Z,3.73
2022-08-17T11:40:59.165Z,4.10
2022-08-17T11:43:47.812Z,3.63
2022-08-17T11:46:20.783Z,3.70
2022-08-17T11:49:14.458Z,3.50
2022-08-17T11:51:56.346Z,3.90
2022-08-17T11:54:37.199Z,3.90
2022-08-17T11:57:22.477Z,4.00
2022-08-17T11:59:51.988Z,3.90
2022-08-17T12:02:34.866Z,3.60
2022-08-17T12:05:12.219Z,3.53
2022-08-17T12:07:44.833Z,3.57
2022-08-17T12:10:12.359Z,3.50
2022-08-17T12:12:43.464Z,4.00
2022-08-17T12:15:17.290Z,3.80
2022-08-17T12:17:51.183Z,4.23
2022-08-17T12:20:19.153Z,3.73
2022-08-17T12:22:45.654Z,3.97
2022-08-17T12:25:22.146Z,4.27
2022-08-17T12:28:06.223Z,3.77
2022-08-17T12:30:35.446Z,3.50
2022-08-17T12:33:03.713Z,3.60
2022-08-17T12:35:36.661Z,3.60
2022-08-17T12:38:04.522Z,3.90
2022-08-17T12:40:32.200Z,3.50
2022-08-17T12:42:58.757Z,4.00
2022-08-17T12:45:29.364Z,3.20
2022-08-17T12:48:13.130Z,4.00
2022-08-17T12:50:44.492Z,3.83
2022-08-17T12:53:15.816Z,4.27
2022-08-17T12:55:43.154Z,3.80
2022-08-17T12:58:16.975Z,4.50
2022-08-17T13:00:51.203Z,3.93
2022-08-17T13:03:19.494Z,4.03
2022-08-17T13:05:52.120Z,3.80
2022-08-17T13:08:45.059Z,3.57
2022-08-17T13:11:14.594Z,4.10
2022-08-17T13:13:42.614Z,3.90
2022-08-17T13:16:15.362Z,3.80
2022-08-17T13:18:44.040Z,3.57
2022-08-17T13:21:12.250Z,4.60
2022-08-17T13:23:38.870Z,5.00
2022-08-17T13:26:15.616Z,4.10
2022-08-17T13:28:49.693Z,3.83
2022-08-17T13:31:26.267Z,3.83
2022-08-17T13:33:52.842Z,3.50
2022-08-17T13:36:32.042Z,4.30
2022-08-17T13:39:14.233Z,3.53
2022-08-17T13:41:40.810Z,3.10
2022-08-17T13:44:28.169Z,3.20
2022-08-17T13:46:57.096Z,3.10
2022-08-17T13:49:23.795Z,3.47
2022-08-17T13:51:50.358Z,3.30
2022-08-17T13:54:37.893Z,3.40
2022-08-17T13:57:04.529Z,3.23
2022-08-17T13:59:55.072Z,3.80
2022-08-17T14:02:23.097Z,3.40
2022-08-17T14:04:53.167Z,4.03
2022-08-17T14:07:19.671Z,3.40
2022-08-17T14:09:48.582Z,3.70
2022-08-17T14:12:16.460Z,4.00
2022-08-17T14:14:43.685Z,3.57
2022-08-17T14:17:10.397Z,3.23
2022-08-17T14:19:37.363Z,3.30
2022-08-17T14:22:04.988Z,3.40
2022-08-17T14:24:34.312Z,3.57
2022-08-17T14:27:02.113Z,3.13
2022-08-17T14:29:29.692Z,4.50
2022-08-17T14:31:56.890Z,3.90
2022-08-17T14:34:24.816Z,4.83
2022-08-17T14:36:51.882Z,4.80
2022-08-17T14:39:18.999Z,4.93
2022-08-17T14:41:45.541Z,5.47
2022-08-17T14:44:13.147Z,4.10
2022-08-17T14:46:43.240Z,5.37
2022-08-17T14:49:10.918Z,5.00
2022-08-17T14:51:43.519Z,4.40
2022-08-17T14:54:11.210Z,4.10
2022-08-17T14:56:38.646Z,3.50
2022-08-17T14:59:05.306Z,3.73
2022-08-17T15:01:31.966Z,4.10
2022-08-17T15:03:58.639Z,3.50
2022-08-17T15:06:25.205Z,4.80
2022-08-17T15:08:51.765Z,5.30
2022-08-17T15:11:18.386Z,3.90
2022-08-17T15:13:52.992Z,3.47
2022-08-17T15:16:20.545Z,3.83
2022-08-17T15:18:47.379Z,4.07
2022-08-17T15:21:14.899Z,4.03
2022-08-17T15:23:41.470Z,3.80
2022-08-17T15:26:10.693Z,4.10
2022-08-17T15:28:37.789Z,4.47
2022-08-17T15:31:06.111Z,4.30
2022-08-17T15:33:32.897Z,3.80
2022-08-17T15:36:00.799Z,4.90
2022-08-17T15:38:28.026Z,5.10
2022-08-17T15:40:54.989Z,4.80
2022-08-17T15:43:27.392Z,5.97
2022-08-17T15:46:00.229Z,4.80
2022-08-17T15:48:40.674Z,5.20
2022-08-17T15:51:08.163Z,4.00
2022-08-17T15:53:34.805Z,3.60
2022-08-17T15:56:01.352Z,4.40
2022-08-17T15:58:30.066Z,4.03
2022-08-17T16:01:16.489Z,4.17
2022-08-17T16:04:04.680Z,4.30
2022-08-17T16:06:32.934Z,4.40
2022-08-17T16:09:00.395Z,5.00
2022-08-17T16:11:27.035Z,5.33
2022-08-17T16:13:55.005Z,3.70
2022-08-17T16:16:23.604Z,4.23
2022-08-17T16:18:54.548Z,4.47
2022-08-17T16:21:26.057Z,4.43
2022-08-17T16:23:56.193Z,4.10
2022-08-17T16:26:26.188Z,4.40
2022-08-17T16:28:53.174Z,4.33
2022-08-17T16:31:20.102Z,3.90
2022-08-17T16:33:58.404Z,4.63
2022-08-17T16:36:35.166Z,3.73
2022-08-17T16:39:01.792Z,4.17
2022-08-17T16:41:45.015Z,4.13
2022-08-17T16:44:15.350Z,3.90
2022-08-17T16:46:45.636Z,4.27
2022-08-17T16:49:36.355Z,4.33
2022-08-17T16:52:01.654Z,4.10
2022-08-17T16:54:28.229Z,3.93
2022-08-17T16:56:54.766Z,3.93
2022-08-17T16:59:31.670Z,4.40
2022-08-17T17:02:10.940Z,4.20
2022-08-17T17:05:02.583Z,3.90
2022-08-17T17:07:49.769Z,3.90
2022-08-17T17:10:19.905Z,3.60
2022-08-17T17:13:03.627Z,4.47
2022-08-17T17:15:46.468Z,3.80
2022-08-17T17:18:13.671Z,3.83
2022-08-17T17:20:47.688Z,3.73
2022-08-17T17:23:43.535Z,4.83
2022-08-17T17:26:16.442Z,4.50
2022-08-17T17:28:55.226Z,4.30
2022-08-17T17:31:25.322Z,3.70
2022-08-17T17:33:55.583Z,3.33
2022-08-17T17:36:27.178Z,4.67
2022-08-17T17:38:59.233Z,4.80
2022-08-17T17:41:32.802Z,4.33
2022-08-17T17:44:04.801Z,3.50
2022-08-17T17:46:35.274Z,4.23
2022-08-17T17:49:01.844Z,3.50
2022-08-17T17:52:09.263Z,4.97
2022-08-17T17:54:25.679Z,4.50
2022-08-17T17:57:15.754Z,4.60
2022-08-17T18:00:05.554Z,4.07
2022-08-17T18:02:52.602Z,4.63
2022-08-17T18:05:27.600Z,4.83
2022-08-17T18:08:10.727Z,4.70
2022-08-17T18:10:50.766Z,4.17
2022-08-17T18:13:26.797Z,4.37
2022-08-17T18:15:54.428Z,3.73
2022-08-17T18:18:23.764Z,4.67
2022-08-17T18:20:53.772Z,4.60
2022-08-17T18:23:28.096Z,5.07
2022-08-17T18:25:55.876Z,5.10
2022-08-17T18:28:27.860Z,4.70
2022-08-17T18:31:03.504Z,4.80
2022-08-17T18:33:30.139Z,4.50
2022-08-17T18:35:58.896Z,5.07
2022-08-17T18:38:28.050Z,5.40
2022-08-17T18:40:59.767Z,5.53
2022-08-17T18:43:53.051Z,4.60
2022-08-17T18:46:35.918Z,4.80
2022-08-17T18:49:07.731Z,5.63
2022-08-17T18:51:41.397Z,5.03
2022-08-17T18:54:09.687Z,5.10
2022-08-17T18:56:37.082Z,4.73
2022-08-17T18:59:22.182Z,5.40
2022-08-17T19:02:15.307Z,5.80
2022-08-17T19:04:52.533Z,5.00
2022-08-17T19:07:19.080Z,5.20
2022-08-17T19:09:48.539Z,4.50
2022-08-17T19:12:41.980Z,5.27
2022-08-17T19:15:09.820Z,6.00
2022-08-17T19:17:57.693Z,6.90
2022-08-17T19:20:28.793Z,6.17
2022-08-17T19:23:26.721Z,5.73
2022-08-17T19:25:54.505Z,7.20
2022-08-17T19:28:36.850Z,6.23
2022-08-17T19:31:06.538Z,5.90
2022-08-17T19:33:34.007Z,6.27
2022-08-17T19:36:06.671Z,6.43
2022-08-17T19:38:56.773Z,6.57
2022-08-17T19:41:29.404Z,5.30
2022-08-17T19:44:11.230Z,5.23
2022-08-17T19:46:55.993Z,7.37
2022-08-17T19:49:34.503Z,5.40
2022-08-17T19:52:26.954Z,6.53
2022-08-17T19:54:57.538Z,5.50
2022-08-17T19:57:30.117Z,7.03
2022-08-17T20:00:11.850Z,5.97
2022-08-17T20:02:41.457Z,5.73
2022-08-17T20:05:14.138Z,5.83
2022-08-17T20:07:49.723Z,5.67
2022-08-17T20:10:23.495Z,6.07
2022-08-17T20:12:51.174Z,7.13
2022-08-17T20:15:22.894Z,6.73
2022-08-17T20:17:50.165Z,5.83
2022-08-17T20:20:22.075Z,6.17
2022-08-17T20:22:58.252Z,5.20
2022-08-17T20:25:30.533Z,6.20
2022-08-17T20:28:06.213Z,5.70
2022-08-17T20:30:38.379Z,6.90
2022-08-17T20:33:06.547Z,6.30
2022-08-17T20:35:36.474Z,6.57
2022-08-17T20:38:08.301Z,6.70
2022-08-17T20:40:38.325Z,6.87
2022-08-17T20:43:23.523Z,6.73
2022-08-17T20:46:02.812Z,6.57
2022-08-17T20:48:38.404Z,7.37
2022-08-17T20:51:18.145Z,7.53
2022-08-17T20:53:47.949Z,6.27
2022-08-17T20:56:33.202Z,6.60
2022-08-17T20:59:00.780Z,7.17
2022-08-17T21:01:39.640Z,6.30
2022-08-17T21:04:08.191Z,6.37
2022-08-17T21:06:54.737Z,6.83
2022-08-17T21:09:29.880Z,7.93
2022-08-17T21:12:04.317Z,8.20
2022-08-17T21:14:36.497Z,7.70
2022-08-17T21:17:14.917Z,6.93
2022-08-17T21:20:17.157Z,6.87
2022-08-17T21:22:43.719Z,5.90
2022-08-17T21:25:29.021Z,6.63
2022-08-17T21:28:14.435Z,7.10
2022-08-17T21:30:41.082Z,6.47
2022-08-17T21:33:20.638Z,6.73
2022-08-17T21:35:49.472Z,6.43
2022-08-17T21:38:19.417Z,7.03
2022-08-17T21:40:48.614Z,6.90
2022-08-17T21:43:15.733Z,8.33
2022-08-17T21:45:43.510Z,7.33
2022-08-17T21:48:11.027Z,6.33
2022-08-17T21:50:37.993Z,6.80
2022-08-17T21:53:05.260Z,7.07
2022-08-17T21:55:33.239Z,6.67
2022-08-17T21:58:14.720Z,7.40
2022-08-17T22:00:44.775Z,7.60
2022-08-17T22:03:22.523Z,7.50
2022-08-17T22:05:53.615Z,7.30
2022-08-17T22:08:23.100Z,7.27
2022-08-17T22:10:51.248Z,6.47
2022-08-17T22:13:17.899Z,7.40
2022-08-17T22:15:45.951Z,6.47
2022-08-17T22:18:19.948Z,7.27
2022-08-17T22:20:51.699Z,7.20
2022-08-17T22:23:48.777Z,7.07
2022-08-17T22:26:16.437Z,6.90
2022-08-17T22:28:43.175Z,7.70
2022-08-17T22:31:14.519Z,7.20
2022-08-17T22:33:45.960Z,6.80
2022-08-17T22:36:19.260Z,7.10
2022-08-17T22:38:49.306Z,6.90
2022-08-17T22:41:32.108Z,6.60
2022-08-17T22:44:14.157Z,7.90
2022-08-17T22:46:55.646Z,7.20
2022-08-17T22:49:23.658Z,6.93
2022-08-17T22:51:58.471Z,7.60
2022-08-17T22:54:46.152Z,8.37
2022-08-17T22:57:32.485Z,12.70
2022-08-17T23:00:00.079Z,10.60
2022-08-17T23:02:28.549Z,9.70
2022-08-17T23:05:11.769Z,9.73
2022-08-17T23:07:39.280Z,8.43
2022-08-17T23:10:09.594Z,8.30
2022-08-17T23:12:39.840Z,7.93
2022-08-17T23:15:11.638Z,7.90
2022-08-17T23:17:38.264Z,8.40
2022-08-17T23:20:09.088Z,9.87
2022-08-17T23:22:37.191Z,9.27
2022-08-17T23:25:04.345Z,7.83
2022-08-17T23:27:31.702Z,8.30
2022-08-17T23:29:58.252Z,8.30
2022-08-17T23:32:25.131Z,10.47
2022-08-17T23:34:51.692Z,9.33
2022-08-17T23:37:18.845Z,8.77
2022-08-17T23:39:45.794Z,8.23
2022-08-17T23:42:15.181Z,9.10
2022-08-17T23:44:43.658Z,8.17
2022-08-17T23:47:10.944Z,8.50
2022-08-17T23:49:39.100Z,8.63
2022-08-17T23:52:06.902Z,8.00
2022-08-17T23:54:43.713Z,7.73
2022-08-17T23:57:12.693Z,9.90
2022-08-17T23:59:39.598Z,8.70
